Cenk Guler

Chief Scout - Kayserispor
22 Feb 2028
Tuesday
Process

Personality

Adaptability (17) Ambition (12) Controversy (17) Loyalty (4) Pressure (12) Professionalism (3) Sportsmanship (5) Temperament (6)

Profile

Coaching Style Democratic
License Continental C
Determination 8
Man Management 12
Motivating 6
Discipline 8
Job Satisfaction
100%
Fatigue
0%
Role Chief Scout
Wage 22.0K p/w
Contract 14.03.2028

Performance

Behaviour Good
Training Effectiveness
45%
Player Development
25%
Injury Prevention
45%
Tactical Implementation
35%

Recent Events

Contract negotiation started now
Attended a recruitment meeting now
Attended a recruitment meeting now
Attended a recruitment meeting now
Contract negotiation started 7d ago
Contract negotiation started 7d ago
Observed a match 7d ago
Contract negotiation started 7d ago

Currently Monitoring

161
Player Club Status Ability Confidence Watched Last Observed Latest Vote
Pablo García Racing Santander Active 134 / 137 40% 2 07.02.2028 -
Ryan McAidoo Gillingham Active 122 / 132 40% 1 07.02.2028 -
Nicolás Azambuja Cádiz Active 126 / 135 40% 1 07.02.2028 -
Luis Otávio Colorado Rapids Active 116 / 108 40% 3 24.01.2028 -
Mateo Peralta Danubio Active 116 / 117 40% 1 24.01.2028 -
Mohammed Habib Sarwari Kariobangi Sharks Active 81 / 71 40% 3 18.01.2028 -
Daniel Banjaqui Benfica Active 116 / 133 40% 1 18.01.2028 -
Andreas Trimmel Trabzonspor Active 131 / 131 60% 1 17.01.2028 -
Ali Şahin Yılmaz Trabzonspor Report Ready 103 / 112 72% 1 17.01.2028 -
Trey Nyoni Rotherham United Active 135 / 141 40% 1 10.01.2028 -
Khalis Merah Toulouse FC Active 131 / 130 40% 1 10.01.2028 -
Enes Tepecik Ankaragucu Report Ready 93 / 99 72% 1 07.01.2028 -
Mehdi Hashemnejad Foolad Negotiating 116 / 118 67% 1 01.01.2028 -
Özgür Aktaş Ankaragucu Lost 105 / 112 72% 1 01.01.2028 -
Esquerdinha Shrewsbury Town Active 121 / 125 40% 1 06.12.2027 -
Josh Nichols Tranmere Rovers Active 118 / 125 40% 1 06.12.2027 -
Marvelous Freedom Ikorodu City Active 98 / 106 40% 3 23.11.2027 -
Hosea Michael Remo Stars Active 89 / 83 40% 2 23.11.2027 -
Olaniyi Saheed Kwara United Active 91 / 98 40% 1 22.11.2027 -
Junior Machis Atletico Venezuela Active 77 / 82 40% 1 22.11.2027 -
Joel Ezra Enyimba Active 95 / 105 40% 3 20.11.2027 -
Gift Udoh Ikorodu City Active 89 / 87 40% 1 07.11.2027 -
David Valencia Alianza Petrolera Active 128 / 129 40% 1 07.11.2027 -
Caleb Yirenkyi Coventry City Active 138 / 141 40% 3 03.11.2027 -
Tiago Gordillo San Miguel Active 90 / 103 40% 4 03.11.2027 -
Ricky Atletico Venezuela Active 101 / 105 40% 1 02.11.2027 -
Lucas Camejo River Plate Active 87 / 83 40% 1 02.11.2027 -
Sebastián Ramírez Jaguares Active 114 / 113 40% 1 11.10.2027 -
David Damboama El-Kanemi Warriors Active 88 / 102 40% 3 10.10.2027 -
Juan Morán Godoy Cruz Active 109 / 107 40% 1 10.10.2027 -
Chibueze Oputa Rangers International Active 85 / 91 40% 1 07.10.2027 -
Tyson Pearce St. Louis CITY SC Active 98 / 95 40% 1 07.10.2027 -
Daniel Gomez Valledupar Active 92 / 101 40% 1 06.10.2027 -
David Asayure Lokomotivi Active 84 / 79 40% 1 06.10.2027 -
Kauã Moraes Cruzeiro Active 129 / 128 40% 1 06.10.2027 -
Juan Diego Perdomo Depor Active 84 / 86 40% 1 05.10.2027 -
Hervin Goyes Deportivo Pasto Active 102 / 105 40% 1 05.10.2027 -
Issa Yusuf Shooting Stars Active 96 / 101 40% 2 04.10.2027 -
Mads Bomholt Stabaek Active 116 / 111 40% 1 04.10.2027 -
Tobias Slotsager Casertana Active 112 / 123 40% 2 16.08.2027 -
Matías Canedo Rampla Juniors Active 92 / 99 40% 1 16.08.2027 -
Edwin Asamoah Berekum Chelsea Active 94 / 83 40% 1 16.08.2027 -
Themba Ngcobo SuperSport United Active 111 / 112 40% 1 05.07.2027 -
Dom Ballard Leyton Orient Active 117 / 121 40% 1 05.07.2027 -
Santiago Hezze Chaves Active 132 / 133 62% 1 28.06.2027 -
Davide Bartesaghi AC Milan Active 126 / 131 40% 4 21.06.2027 -
Josh King Chelsea Active 140 / 145 40% 3 21.06.2027 -
Daniel Kelly Oxford United Active 108 / 126 40% 3 21.06.2027 -
Dion Beljo Standard Liege Negotiating 131 / 132 66% 1 01.06.2027 -
Juan Giménez Celta Active 115 / 117 40% 2 31.05.2027 -
Baran Gezek Alanyaspor Active 103 / 118 40% 1 31.05.2027 -
Matías Gómez Granada Active 114 / 115 40% 2 30.05.2027 -
Sascha Britschgi Padova Active 123 / 120 40% 4 30.05.2027 -
Samuele di Benedetto Bari Active 112 / 117 40% 1 28.05.2027 -
Cheveyo Tsawa Club Brugge Active 112 / 127 40% 1 26.05.2027 -
Jofre Torrents Ajax Active 130 / 132 40% 3 25.05.2027 -
Joel McGregor Swindon Town Active 88 / 97 40% 4 25.05.2027 -
Daniel Vernattus Metalist Active 96 / 101 40% 1 25.05.2027 -
Finley McAllister Grimsby Town Active 89 / 97 40% 2 23.05.2027 -
Johan Manzambi Newcastle United Active 143 / 150 40% 3 22.05.2027 -
Matvey Kislyak CSKA Moscow Active 139 / 137 40% 1 22.05.2027 -
Zane Albarus Cambridge United Active 90 / 106 40% 3 21.05.2027 -
Tiago Freitas Benfica Active 113 / 114 40% 3 18.05.2027 -
Amadou Niang Al Ain Active 114 / 128 40% 1 18.05.2027 -
Zaïd BafdilI Sporting CP Active 83 / 101 40% 3 16.05.2027 -
Ernie Weaver AFC Wimbledon Active 103 / 119 40% 3 16.05.2027 -
Ali Fidan Adana Demirspor Active 84 / 93 40% 1 16.05.2027 -
Adam Bakoune Ospitaletto Active 94 / 108 40% 1 15.05.2027 -
Gonçalo Oliveira Benfica Active 111 / 114 40% 1 15.05.2027 -
Keagan Tau Ajax Cape Town Active 86 / 106 40% 1 12.05.2027 -
Leandro Martins Benfica Active 96 / 102 40% 1 11.05.2027 -
Jan Bürger Gillingham Active 113 / 122 40% 3 30.04.2027 -
Dylan Lawlor Cardiff City Active 116 / 123 40% 3 29.04.2027 -
Martim Cunha Porto Active 96 / 114 40% 2 29.04.2027 -
Kazunari Kita Real Sociedad Active 96 / 110 40% 2 26.04.2027 -
Christ Inao Oulaï Fiorentina Active 140 / 138 40% 2 24.04.2027 -
Christos Mouzakitis Hull City Active 123 / 133 40% 2 22.04.2027 -
Emirhan Başyiğit Sivasspor Active 111 / 111 40% 1 19.04.2027 -
Daniel Costa Sporting CP Active 87 / 95 40% 1 17.04.2027 -
Percy Jali Free State Stars Active 86 / 111 40% 1 10.04.2027 -
Riley Owen Trento Active 99 / 102 40% 1 07.04.2027 -
Taras Mykhavko Dynamo Kyiv Active 120 / 129 40% 1 07.04.2027 -
David Ozoh Derby County Active 113 / 120 40% 1 05.04.2027 -
Richard Koné Queens Park Rangers Active 131 / 122 40% 1 04.01.2027 -
Sayfallah Ltaief Cracovia Active 130 / 121 40% 1 04.01.2027 Needs More Info
Morgan Whittaker Middlesbrough Active 133 / 126 40% 2 02.01.2027 -
Stanley Mills Oxford United Active 118 / 123 40% 1 02.01.2027 -
Isaiah Jones Luton Town Active 131 / 115 40% 1 30.12.2026 -
Kwadwo Baah Watford Active 125 / 124 40% 1 30.12.2026 -
Crysencio Summerville Al-Hilal Active 141 / 150 40% 1 29.12.2026 -
Othmane Maamma Watford Active 131 / 134 40% 1 29.12.2026 -
Sidny Lopes Cabral Trabzonspor Active 133 / 136 40% 2 28.12.2026 -
Koki Saito Queens Park Rangers Active 121 / 125 40% 2 28.12.2026 -
Tom Fellows Southampton Active 123 / 133 40% 3 27.12.2026 -
Andre Brooks Sheffield United Active 118 / 123 40% 1 26.12.2026 -
Shahriar Dejagah Tractor Active 122 / 133 40% 2 25.12.2026 Needs More Info
Romano Schmid Frosinone Active 136 / 147 40% 2 25.12.2026 -
Adrien Truffert Bournemouth Active 146 / 146 40% 2 25.12.2026 -
Luis Vázquez Birmingham Active 129 / 123 40% 1 25.12.2026 -
Finn Azaz Southampton Active 137 / 125 40% 2 21.12.2026 -
Jack Diamond Stockport County Active 116 / 119 40% 1 20.12.2026 -
Cian Ashford Cardiff City Active 120 / 118 40% 1 19.12.2026 -
Ahmed Kutucu Konyaspor Active 135 / 113 40% 2 18.12.2026 -
Williams Manyama SuperSport United Active 132 / 107 40% 4 17.12.2026 -
Scott Twine Bristol City Active 134 / 120 40% 1 16.12.2026 -
Rodrigo Huescas FC Copenhagen Active 130 / 136 40% 1 16.12.2026 -
Florentino Luís Ipswich Town Active 137 / 142 40% 1 14.12.2026 -
Robert Mizo Ashanti Gold Active 119 / 101 40% 1 14.12.2026 -
Kwame Poku Queens Park Rangers Active 115 / 115 40% 2 08.12.2026 -
Aral Şimşir Trabzonspor Active 134 / 137 40% 3 08.12.2026 -
Sam Bell Bristol City Active 118 / 118 40% 1 08.12.2026 -
Ryan Sessegnon Fulham Active 138 / 151 40% 1 05.12.2026 -
Alexis Cuello San Lorenzo Active 117 / 131 40% 1 04.12.2026 -
Zeidane Inoussa Swansea City Active 126 / 126 40% 1 04.12.2026 -
Lorent Tolaj Plymouth Argyle Active 113 / 113 40% 1 02.12.2026 -
Ronald Swansea City Active 126 / 123 40% 1 30.11.2026 -
Assad Al Hamlawi Universitatea Craiova Active 124 / 124 40% 1 29.11.2026 -
Güven Yalçın Alanyaspor Active 125 / 111 40% 1 28.11.2026 -
Wessam Abou Ali Columbus Crew Active 117 / 121 40% 1 28.11.2026 -
Sorba Thomas Stoke City Active 124 / 124 40% 1 26.11.2026 -
Derensili Sanches Fernandes Huddersfield Town Active 127 / 119 40% 1 26.11.2026 -
Christian Krasnodar Active 128 / 135 40% 2 23.11.2026 -
Mduduzi Shabalala Kaizer Chiefs Active 99 / 119 40% 3 22.11.2026 -
Pedro Porro Tottenham Active 153 / 148 40% 2 22.11.2026 -
Wilson Isidor Sunderland Active 137 / 141 40% 1 21.11.2026 -
Kevin Fulham Active 142 / 143 40% 1 20.11.2026 -
Reda Khadra Qarabag Active 129 / 123 40% 2 19.11.2026 -
Enzo Le Fée Sunderland Active 134 / 138 40% 1 16.11.2026 -
Bamba Dieng Crvena Zvezda Active 130 / 131 40% 1 14.11.2026 -
Oswin Appollis Orlando Pirates Active 126 / 127 40% 1 13.11.2026 -
Tshepang Moremi Orlando Pirates Active 128 / 117 40% 1 12.11.2026 -
Festy Ebosele Basaksehir Active 136 / 124 40% 2 11.11.2026 -
Bénie Traoré New York City Active 140 / 121 40% 1 09.11.2026 -
Philippe Keny Zurich Active 111 / 115 40% 1 09.11.2026 -
Pablo Rodríguez Lech Active 119 / 118 40% 1 08.11.2026 -
Brayan León Mamelodi Sundowns Active 132 / 123 40% 1 06.11.2026 -
David Miculescu FCSB Active 118 / 119 40% 1 04.11.2026 -
Seedy Jatta Sturm Graz Active 123 / 118 40% 1 03.11.2026 -
Alexander Díaz Deportivo Riestra Active 115 / 117 40% 1 02.11.2026 -
Alan Lescano Argentinos Juniors Active 139 / 128 40% 1 02.11.2026 -
Mandla Erasmus SuperSport United Active 104 / 116 40% 1 31.10.2026 -
Ramiro Ruiz Rodríguez Atlético Tucumán Active 124 / 117 40% 1 30.10.2026 -
Antonio Galeano Remo Stars Active 114 / 133 40% 1 29.10.2026 -
Sead Hakšabanović Malmo FF Active 136 / 120 40% 1 29.10.2026 Needs More Info
David Ankeye Zeleznicar Pancevo Active 119 / 114 40% 2 26.10.2026 -
Mayckel Lahdo Malmo FF Active 128 / 115 40% 1 25.10.2026 Needs More Info
Andrés Herrera Columbus Crew Active 110 / 110 40% 2 22.10.2026 -
Batista Mendy Trabzonspor Active 151 / 133 40% 1 22.10.2026 -
Amin Boudri Los Angeles Football Club Active 119 / 127 40% 1 21.10.2026 -
Agustín Módica Gimnasia y Esgrima Active 113 / 126 40% 1 18.10.2026 -
Elias Achouri San Diego Football Club Active 126 / 129 40% 1 15.10.2026 -
Daniel Kyerewaa Reading Active 102 / 108 40% 1 14.10.2026 -
Drissa Camara Gaziantep Active 126 / 119 40% 1 13.10.2026 -
Martín Ojeda Orlando City Active 123 / 136 40% 1 13.10.2026 -
Ernest Muçi Trabzonspor Active 135 / 128 40% 1 13.10.2026 -
Etiosa Ighodaro Kaizer Chiefs Active 109 / 117 40% 1 08.10.2026 -
Marcelo Allende Mamelodi Sundowns Active 137 / 116 40% 1 05.10.2026 -
Giovanni Cantizano Rosario Central Active 101 / 126 40% 1 10.09.2026 -
Sergey Pinyaev Lokomotiv Moscow Active 130 / 131 40% 1 09.09.2026 -
Law McCabe Middlesbrough Active 109 / 111 40% 1 12.08.2026 -
Mauricio Amaro Atlanta United FC Active 116 / 130 40% 1 01.08.2026 -